Denali National Park, Alaska
Current Conditions -  °F | °C
As of 3:36 AM on Monday 20 Oct 2014 (Local Time) from PAIN Reporting Station
Overcast Overcast  
Wind Chill: 18°   Ceiling: 500
Heat Index: 18°   Visibility: 10mi
Dew Point: 18°   Wind: 0mph
Humidity: 100%   Direction: NA
Pressure: 29.09"   Gusts: NA
Location:  63.7326°N, 148.918°W
Report Text: PAIN 201136Z AUTO 00000KT 10SM OVC005 M08/M08 A2909 RMK AO1
Loading
Personal Weather Stations






























Interactive Weather Map
Tropical Storm Tracking
New forecast layout! Learn more

10-Day Weather Forecast

Advertisements
Track Severe Weather on mobile